Norwegian Dawn — C6FT7 — position and weather

sailwx.info

Track history (hours):
 
Tides and Currents Weather Stations Pressure Air Temp Water Temp Dewpoint Dewpoint Depression Visibility Wind Speed Wind Dir Waves Ship Positions

Norwegian Dawn

Operator: Norwegian Cruise Line

Last reported at 2018-Dec-13 02:50 UTC. Time now 2018-Dec-13 14:22 UTC.
Position N 14°26' W 061°24'.

Type: Ship. MMSI: 311307000.

Date/timePositionNaut miles runAvg speedWind from/ knotsBaromVisibWave heightAir tempDewpointWater temp
2018-Dec-13 02:50N 14°26' W 061°24'823.3
2018-Dec-13 02:29N 14°18' W 061°22'1222.9
2018-Dec-13 01:57N 14°07' W 061°17'13 0.5
2018-Dec-11 23:44N 14°01' W 061°05'311.8
2018-Dec-11 23:28N 14°02' W 061°02'2 0.3
2018-Dec-11 15:30N 14°03' W 061°04'  
2018-Dec-06 00:10N 18°09' W 064°54'211.9
2018-Dec-05 23:59N 18°09' W 064°52'611.8
2018-Dec-05 23:30N 18°10' W 064°46'1011.5
2018-Dec-05 22:39N 18°12' W 064°36'211.7
2018-Dec-05 22:30N 18°13' W 064°35'712.1
2018-Dec-05 21:56N 18°20' W 064°33'511.1
2018-Dec-05 21:30N 18°24' W 064°33'3 0.3
2018-Dec-05 10:58N 18°25' W 064°36'4 7.9
2018-Dec-05 10:30N 18°23' W 064°33'6 7.4
2018-Dec-05 09:44N 18°18' W 064°32'4 7.8
2018-Dec-05 09:15N 18°14' W 064°32'2 7.4
2018-Dec-05 08:55N 18°12' W 064°33'46 7.7
2018-Dec-05 02:55N 17°58' W 063°46'3 7.5
2018-Dec-05 02:28N 17°57' W 063°43'715.8
2018-Dec-05 02:00N 17°54' W 063°36'326.9 080 / 221015.010.8 26.9 29.6
2018-Dec-05 01:52N 17°56' W 063°38'3 7.6
2018-Dec-05 01:29N 17°56' W 063°35'4 7.6
2018-Dec-05 00:55N 17°55' W 063°31'4 7.3
2018-Dec-05 00:22N 17°54' W 063°27'3 7.3
2018-Dec-04 23:59N 17°54' W 063°24'4 7.5
2018-Dec-04 23:27N 17°53' W 063°20'3 7.7
2018-Dec-04 23:00N 17°53' W 063°16'6393.7
2018-Dec-04 23:00N 17°48' W 063°18'1115.2 090 / 201015.010.8 26.722.128.4
2018-Dec-04 22:16N 17°57' W 063°12'5 7.7
2018-Dec-04 21:37N 17°59' W 063°07'2 9.8
2018-Dec-04 21:22N 17°60' W 063°04'2 1.9
2018-Dec-04 20:32N 18°01' W 063°03'0 0.0
2018-Dec-04 20:17N 18°01' W 063°03'0 0.0
2018-Dec-04 19:32N 18°01' W 063°03'0 0.0
2018-Dec-04 19:17N 18°01' W 063°03'0 0.0
2018-Dec-04 18:59N 18°01' W 063°03'0 0.0
2018-Dec-04 18:17N 18°01' W 063°03'0 0.0
2018-Dec-04 17:50N 18°01' W 063°03'0 0.0
2018-Dec-04 17:20N 18°01' W 063°03'0 0.0
2018-Dec-04 16:50N 18°01' W 063°03'0 0.0
2018-Dec-04 16:08N 18°01' W 063°03'0 0.0
2018-Dec-04 15:50N 18°01' W 063°03'0 0.0
2018-Dec-04 15:08N 18°01' W 063°03'0 0.0
2018-Dec-04 14:53N 18°01' W 063°03'0 0.0
2018-Dec-04 14:23N 18°01' W 063°03'0 0.0
2018-Dec-04 13:56N 18°01' W 063°03'0 0.0
2018-Dec-04 13:11N 18°01' W 063°03'0 0.0
2018-Dec-04 12:41N 18°01' W 063°03'0 0.0
2018-Dec-04 12:23N 18°01' W 063°03'0 0.0
2018-Dec-04 11:56N 18°01' W 063°03'0 0.0
2018-Dec-04 11:23N 18°01' W 063°03'0 0.5
2018-Dec-04 10:48N 18°00' W 063°03'2 4.5
2018-Dec-04 10:26N 17°60' W 063°05'5 8.1
2018-Dec-04 09:48N 17°59' W 063°10'3 8.8
2018-Dec-04 09:25N 17°58' W 063°13'3 7.3
2018-Dec-04 08:59N 17°55' W 063°15'5 7.9
2018-Dec-04 08:18N 17°51' W 063°12'5 8.5
2018-Dec-04 07:40N 17°46' W 063°09'2 8.3
2018-Dec-04 07:22N 17°44' W 063°07'3 8.2
2018-Dec-04 06:58N 17°41' W 063°05'5 8.8
2018-Dec-04 06:27N 17°40' W 063°01'4 8.9
2018-Dec-04 05:58N 17°39' W 062°56'4 8.9
2018-Dec-04 05:28N 17°38' W 062°52'4 8.9
2018-Dec-04 04:58N 17°37' W 062°47'28 9.4
2018-Dec-04 02:00N 17°36' W 062°18'196 8.7 070 / 191017.010.8 26.4 29.4
2018-Dec-03 03:19N 14°26' W 061°25'722.9
2018-Dec-03 03:00N 14°20' W 061°22'  
Track history (hours):
 
Tides and Currents Weather Stations Pressure Air Temp Water Temp Dewpoint Dewpoint Depression Visibility Wind Speed Wind Dir Waves Ship Positions

Norwegian Dawn

Operator: Norwegian Cruise Line

Last reported at 2018-Dec-13 02:50 UTC. Time now 2018-Dec-13 14:22 UTC.
Position N 14°26' W 061°24'.

Type: Ship. MMSI: 311307000.

Date/timePositionNaut miles runAvg speedWind from/ knotsBaromVisibWave heightAir tempDewpointWater temp
2018-Dec-13 02:50N 14°26' W 061°24'823.3
2018-Dec-13 02:29N 14°18' W 061°22'1222.9
2018-Dec-13 01:57N 14°07' W 061°17'13 0.5
2018-Dec-11 23:44N 14°01' W 061°05'311.8
2018-Dec-11 23:28N 14°02' W 061°02'2 0.3
2018-Dec-11 15:30N 14°03' W 061°04'  
2018-Dec-06 00:10N 18°09' W 064°54'211.9
2018-Dec-05 23:59N 18°09' W 064°52'611.8
2018-Dec-05 23:30N 18°10' W 064°46'1011.5
2018-Dec-05 22:39N 18°12' W 064°36'211.7
2018-Dec-05 22:30N 18°13' W 064°35'712.1
2018-Dec-05 21:56N 18°20' W 064°33'511.1
2018-Dec-05 21:30N 18°24' W 064°33'3 0.3
2018-Dec-05 10:58N 18°25' W 064°36'4 7.9
2018-Dec-05 10:30N 18°23' W 064°33'6 7.4
2018-Dec-05 09:44N 18°18' W 064°32'4 7.8
2018-Dec-05 09:15N 18°14' W 064°32'2 7.4
2018-Dec-05 08:55N 18°12' W 064°33'46 7.7
2018-Dec-05 02:55N 17°58' W 063°46'3 7.5
2018-Dec-05 02:28N 17°57' W 063°43'715.8
2018-Dec-05 02:00N 17°54' W 063°36'326.9 080 / 221015.010.8 26.9 29.6
2018-Dec-05 01:52N 17°56' W 063°38'3 7.6
2018-Dec-05 01:29N 17°56' W 063°35'4 7.6
2018-Dec-05 00:55N 17°55' W 063°31'4 7.3
2018-Dec-05 00:22N 17°54' W 063°27'3 7.3
2018-Dec-04 23:59N 17°54' W 063°24'4 7.5
2018-Dec-04 23:27N 17°53' W 063°20'3 7.7
2018-Dec-04 23:00N 17°53' W 063°16'6393.7
2018-Dec-04 23:00N 17°48' W 063°18'1115.2 090 / 201015.010.8 26.722.128.4
2018-Dec-04 22:16N 17°57' W 063°12'5 7.7
2018-Dec-04 21:37N 17°59' W 063°07'2 9.8
2018-Dec-04 21:22N 17°60' W 063°04'2 1.9
2018-Dec-04 20:32N 18°01' W 063°03'0 0.0
2018-Dec-04 20:17N 18°01' W 063°03'0 0.0
2018-Dec-04 19:32N 18°01' W 063°03'0 0.0
2018-Dec-04 19:17N 18°01' W 063°03'0 0.0
2018-Dec-04 18:59N 18°01' W 063°03'0 0.0
2018-Dec-04 18:17N 18°01' W 063°03'0 0.0
2018-Dec-04 17:50N 18°01' W 063°03'0 0.0
2018-Dec-04 17:20N 18°01' W 063°03'0 0.0
2018-Dec-04 16:50N 18°01' W 063°03'0 0.0
2018-Dec-04 16:08N 18°01' W 063°03'0 0.0
2018-Dec-04 15:50N 18°01' W 063°03'0 0.0
2018-Dec-04 15:08N 18°01' W 063°03'0 0.0
2018-Dec-04 14:53N 18°01' W 063°03'0 0.0
2018-Dec-04 14:23N 18°01' W 063°03'0 0.0
2018-Dec-04 13:56N 18°01' W 063°03'0 0.0
2018-Dec-04 13:11N 18°01' W 063°03'0 0.0
2018-Dec-04 12:41N 18°01' W 063°03'0 0.0
2018-Dec-04 12:23N 18°01' W 063°03'0 0.0
2018-Dec-04 11:56N 18°01' W 063°03'0 0.0
2018-Dec-04 11:23N 18°01' W 063°03'0 0.5
2018-Dec-04 10:48N 18°00' W 063°03'2 4.5
2018-Dec-04 10:26N 17°60' W 063°05'5 8.1
2018-Dec-04 09:48N 17°59' W 063°10'3 8.8
2018-Dec-04 09:25N 17°58' W 063°13'3 7.3
2018-Dec-04 08:59N 17°55' W 063°15'5 7.9
2018-Dec-04 08:18N 17°51' W 063°12'5 8.5
2018-Dec-04 07:40N 17°46' W 063°09'2 8.3
2018-Dec-04 07:22N 17°44' W 063°07'3 8.2
2018-Dec-04 06:58N 17°41' W 063°05'5 8.8
2018-Dec-04 06:27N 17°40' W 063°01'4 8.9
2018-Dec-04 05:58N 17°39' W 062°56'4 8.9
2018-Dec-04 05:28N 17°38' W 062°52'4 8.9
2018-Dec-04 04:58N 17°37' W 062°47'28 9.4
2018-Dec-04 02:00N 17°36' W 062°18'196 8.7 070 / 191017.010.8 26.4 29.4
2018-Dec-03 03:19N 14°26' W 061°25'722.9
2018-Dec-03 03:00N 14°20' W 061°22'  

Dump ship's entire track history